sensor_id;sensor_type;location;lat;lon;timestamp;P1;durP1;ratioP1;P2;durP2;ratioP2
6823;SDS011;58633;49.470;11.004;2022-08-19T00:01:25;16.60;;;13.45;;
6823;SDS011;58633;49.470;11.004;2022-08-19T00:03:54;15.77;;;13.13;;
6823;SDS011;58633;49.470;11.004;2022-08-19T00:06:20;14.70;;;12.52;;
6823;SDS011;58633;49.470;11.004;2022-08-19T00:08:46;16.10;;;13.02;;
6823;SDS011;58633;49.470;11.004;2022-08-19T00:11:11;15.32;;;12.68;;
6823;SDS011;58633;49.470;11.004;2022-08-19T00:13:37;15.38;;;12.75;;
6823;SDS011;58633;49.470;11.004;2022-08-19T00:16:04;15.32;;;13.38;;
6823;SDS011;58633;49.470;11.004;2022-08-19T00:18:31;17.40;;;13.52;;
6823;SDS011;58633;49.470;11.004;2022-08-19T00:20:57;21.05;;;12.90;;
6823;SDS011;58633;49.470;11.004;2022-08-19T00:23:24;14.88;;;13.27;;
6823;SDS011;58633;49.470;11.004;2022-08-19T00:25:50;14.25;;;12.75;;
6823;SDS011;58633;49.470;11.004;2022-08-19T00:28:17;14.07;;;12.65;;
6823;SDS011;58633;49.470;11.004;2022-08-19T00:30:43;15.43;;;12.85;;
6823;SDS011;58633;49.470;11.004;2022-08-19T00:33:09;16.00;;;13.48;;
6823;SDS011;58633;49.470;11.004;2022-08-19T00:35:36;16.20;;;13.10;;
6823;SDS011;58633;49.470;11.004;2022-08-19T00:38:03;16.88;;;12.82;;
6823;SDS011;58633;49.470;11.004;2022-08-19T00:40:30;16.40;;;13.43;;
6823;SDS011;58633;49.470;11.004;2022-08-19T00:42:55;14.77;;;13.18;;
6823;SDS011;58633;49.470;11.004;2022-08-19T00:45:22;15.52;;;13.43;;
6823;SDS011;58633;49.470;11.004;2022-08-19T00:47:50;14.85;;;13.35;;
6823;SDS011;58633;49.470;11.004;2022-08-19T00:50:17;16.15;;;12.88;;
6823;SDS011;58633;49.470;11.004;2022-08-19T00:52:45;15.18;;;12.57;;
6823;SDS011;58633;49.470;11.004;2022-08-19T00:55:19;17.50;;;13.57;;
6823;SDS011;58633;49.470;11.004;2022-08-19T00:57:48;16.48;;;13.88;;
6823;SDS011;58633;49.470;11.004;2022-08-19T01:00:28;16.92;;;13.95;;
6823;SDS011;58633;49.470;11.004;2022-08-19T01:02:54;18.55;;;13.75;;
6823;SDS011;58633;49.470;11.004;2022-08-19T01:05:21;15.98;;;14.30;;
6823;SDS011;58633;49.470;11.004;2022-08-19T01:07:52;16.58;;;13.32;;
6823;SDS011;58633;49.470;11.004;2022-08-19T01:10:19;15.35;;;12.77;;
6823;SDS011;58633;49.470;11.004;2022-08-19T01:12:48;15.55;;;13.57;;
6823;SDS011;58633;49.470;11.004;2022-08-19T01:15:17;16.27;;;13.27;;
6823;SDS011;58633;49.470;11.004;2022-08-19T01:17:44;17.08;;;13.90;;
6823;SDS011;58633;49.470;11.004;2022-08-19T01:20:11;17.27;;;13.30;;
6823;SDS011;58633;49.470;11.004;2022-08-19T01:22:46;14.82;;;13.30;;
6823;SDS011;58633;49.470;11.004;2022-08-19T01:25:19;17.90;;;13.20;;
6823;SDS011;58633;49.470;11.004;2022-08-19T01:27:47;14.95;;;12.80;;
6823;SDS011;58633;49.470;11.004;2022-08-19T01:30:23;16.98;;;14.15;;
6823;SDS011;58633;49.470;11.004;2022-08-19T01:32:51;19.20;;;13.88;;
6823;SDS011;58633;49.470;11.004;2022-08-19T01:35:18;15.00;;;12.50;;
6823;SDS011;58633;49.470;11.004;2022-08-19T01:40:11;17.38;;;13.88;;
6823;SDS011;58633;49.470;11.004;2022-08-19T01:42:37;15.80;;;13.32;;
6823;SDS011;58633;49.470;11.004;2022-08-19T01:45:04;16.48;;;14.32;;
6823;SDS011;58633;49.470;11.004;2022-08-19T01:47:30;19.10;;;14.77;;
6823;SDS011;58633;49.470;11.004;2022-08-19T01:49:57;19.00;;;13.88;;
6823;SDS011;58633;49.470;11.004;2022-08-19T01:52:23;17.40;;;14.30;;
6823;SDS011;58633;49.470;11.004;2022-08-19T01:54:49;16.15;;;14.18;;
6823;SDS011;58633;49.470;11.004;2022-08-19T01:57:14;22.17;;;14.82;;
6823;SDS011;58633;49.470;11.004;2022-08-19T01:59:41;18.33;;;14.93;;
6823;SDS011;58633;49.470;11.004;2022-08-19T02:02:08;17.52;;;13.02;;
6823;SDS011;58633;49.470;11.004;2022-08-19T02:04:34;19.25;;;14.82;;
6823;SDS011;58633;49.470;11.004;2022-08-19T02:07:00;17.95;;;14.13;;
6823;SDS011;58633;49.470;11.004;2022-08-19T02:09:26;20.15;;;14.95;;
6823;SDS011;58633;49.470;11.004;2022-08-19T02:11:52;18.90;;;14.88;;
6823;SDS011;58633;49.470;11.004;2022-08-19T02:14:18;19.33;;;15.65;;
6823;SDS011;58633;49.470;11.004;2022-08-19T02:16:44;20.73;;;15.57;;
6823;SDS011;58633;49.470;11.004;2022-08-19T02:19:10;21.77;;;16.63;;
6823;SDS011;58633;49.470;11.004;2022-08-19T02:21:36;18.25;;;14.77;;
6823;SDS011;58633;49.470;11.004;2022-08-19T02:24:02;22.75;;;16.50;;
6823;SDS011;58633;49.470;11.004;2022-08-19T02:26:29;20.40;;;16.30;;
6823;SDS011;58633;49.470;11.004;2022-08-19T02:28:55;22.88;;;16.50;;
6823;SDS011;58633;49.470;11.004;2022-08-19T02:31:22;23.80;;;17.05;;
6823;SDS011;58633;49.470;11.004;2022-08-19T02:33:48;19.23;;;15.38;;
6823;SDS011;58633;49.470;11.004;2022-08-19T02:36:15;19.50;;;16.65;;
6823;SDS011;58633;49.470;11.004;2022-08-19T02:38:42;20.63;;;16.08;;
6823;SDS011;58633;49.470;11.004;2022-08-19T02:41:12;20.05;;;16.05;;
6823;SDS011;58633;49.470;11.004;2022-08-19T02:43:40;20.63;;;16.40;;
6823;SDS011;58633;49.470;11.004;2022-08-19T02:46:17;21.15;;;16.50;;
6823;SDS011;58633;49.470;11.004;2022-08-19T02:48:47;23.88;;;17.33;;
6823;SDS011;58633;49.470;11.004;2022-08-19T02:51:17;22.58;;;16.65;;
6823;SDS011;58633;49.470;11.004;2022-08-19T02:53:47;21.50;;;16.90;;
6823;SDS011;58633;49.470;11.004;2022-08-19T02:56:14;21.60;;;16.92;;
6823;SDS011;58633;49.470;11.004;2022-08-19T02:58:40;24.55;;;16.95;;
6823;SDS011;58633;49.470;11.004;2022-08-19T03:01:06;21.63;;;16.50;;
6823;SDS011;58633;49.470;11.004;2022-08-19T03:03:33;20.95;;;16.55;;
6823;SDS011;58633;49.470;11.004;2022-08-19T03:06:03;22.88;;;17.33;;
6823;SDS011;58633;49.470;11.004;2022-08-19T03:08:40;20.90;;;16.90;;
6823;SDS011;58633;49.470;11.004;2022-08-19T03:11:17;21.95;;;16.23;;
6823;SDS011;58633;49.470;11.004;2022-08-19T03:13:45;24.08;;;16.58;;
6823;SDS011;58633;49.470;11.004;2022-08-19T03:16:11;21.55;;;16.48;;
6823;SDS011;58633;49.470;11.004;2022-08-19T03:18:37;24.13;;;17.60;;
6823;SDS011;58633;49.470;11.004;2022-08-19T03:21:03;21.75;;;16.92;;
6823;SDS011;58633;49.470;11.004;2022-08-19T03:23:29;21.55;;;16.73;;
6823;SDS011;58633;49.470;11.004;2022-08-19T03:25:55;22.38;;;16.30;;
6823;SDS011;58633;49.470;11.004;2022-08-19T03:28:21;22.75;;;17.30;;
6823;SDS011;58633;49.470;11.004;2022-08-19T03:33:33;24.10;;;17.88;;
6823;SDS011;58633;49.470;11.004;2022-08-19T03:36:03;23.00;;;17.67;;
6823;SDS011;58633;49.470;11.004;2022-08-19T03:38:32;24.38;;;17.80;;
6823;SDS011;58633;49.470;11.004;2022-08-19T03:41:01;22.77;;;17.13;;
6823;SDS011;58633;49.470;11.004;2022-08-19T03:43:28;24.08;;;17.75;;
6823;SDS011;58633;49.470;11.004;2022-08-19T03:46:01;25.80;;;18.77;;
6823;SDS011;58633;49.470;11.004;2022-08-19T03:48:30;25.17;;;18.10;;
6823;SDS011;58633;49.470;11.004;2022-08-19T03:50:56;26.80;;;18.77;;
6823;SDS011;58633;49.470;11.004;2022-08-19T03:53:23;24.05;;;17.85;;
6823;SDS011;58633;49.470;11.004;2022-08-19T03:55:50;25.60;;;17.58;;
6823;SDS011;58633;49.470;11.004;2022-08-19T03:58:16;23.83;;;18.00;;
6823;SDS011;58633;49.470;11.004;2022-08-19T04:00:42;28.88;;;18.77;;
6823;SDS011;58633;49.470;11.004;2022-08-19T04:03:08;25.63;;;18.13;;
6823;SDS011;58633;49.470;11.004;2022-08-19T04:05:34;24.38;;;17.95;;
6823;SDS011;58633;49.470;11.004;2022-08-19T04:08:00;23.77;;;17.52;;
6823;SDS011;58633;49.470;11.004;2022-08-19T04:10:26;22.70;;;17.10;;
6823;SDS011;58633;49.470;11.004;2022-08-19T04:12:53;23.00;;;17.35;;
6823;SDS011;58633;49.470;11.004;2022-08-19T04:15:19;26.33;;;17.75;;
6823;SDS011;58633;49.470;11.004;2022-08-19T04:17:45;23.63;;;17.48;;
6823;SDS011;58633;49.470;11.004;2022-08-19T04:20:11;22.50;;;17.48;;
6823;SDS011;58633;49.470;11.004;2022-08-19T04:22:38;23.83;;;17.95;;
6823;SDS011;58633;49.470;11.004;2022-08-19T04:25:04;24.20;;;16.85;;
6823;SDS011;58633;49.470;11.004;2022-08-19T04:27:30;23.55;;;17.33;;
6823;SDS011;58633;49.470;11.004;2022-08-19T04:29:56;25.00;;;17.27;;
6823;SDS011;58633;49.470;11.004;2022-08-19T04:32:22;23.98;;;18.50;;
6823;SDS011;58633;49.470;11.004;2022-08-19T04:34:48;22.75;;;17.27;;
6823;SDS011;58633;49.470;11.004;2022-08-19T04:37:14;23.50;;;16.90;;
6823;SDS011;58633;49.470;11.004;2022-08-19T04:39:40;25.88;;;18.52;;
6823;SDS011;58633;49.470;11.004;2022-08-19T04:42:25;26.52;;;18.77;;
6823;SDS011;58633;49.470;11.004;2022-08-19T04:45:08;25.23;;;17.67;;
6823;SDS011;58633;49.470;11.004;2022-08-19T04:47:39;26.52;;;18.13;;
6823;SDS011;58633;49.470;11.004;2022-08-19T04:50:06;25.45;;;18.00;;
6823;SDS011;58633;49.470;11.004;2022-08-19T04:52:32;27.27;;;19.13;;
6823;SDS011;58633;49.470;11.004;2022-08-19T04:54:58;24.52;;;17.92;;
6823;SDS011;58633;49.470;11.004;2022-08-19T04:57:24;26.98;;;18.25;;
6823;SDS011;58633;49.470;11.004;2022-08-19T04:59:54;27.88;;;18.88;;
6823;SDS011;58633;49.470;11.004;2022-08-19T05:02:21;27.83;;;19.27;;
6823;SDS011;58633;49.470;11.004;2022-08-19T05:04:49;26.95;;;19.52;;
6823;SDS011;58633;49.470;11.004;2022-08-19T05:07:15;28.48;;;19.95;;
6823;SDS011;58633;49.470;11.004;2022-08-19T05:09:41;29.17;;;20.23;;
6823;SDS011;58633;49.470;11.004;2022-08-19T05:12:06;28.27;;;19.90;;
6823;SDS011;58633;49.470;11.004;2022-08-19T05:14:32;27.67;;;19.02;;
6823;SDS011;58633;49.470;11.004;2022-08-19T05:16:57;28.05;;;19.20;;
6823;SDS011;58633;49.470;11.004;2022-08-19T05:19:23;25.77;;;18.52;;
6823;SDS011;58633;49.470;11.004;2022-08-19T05:22:07;24.95;;;17.77;;
6823;SDS011;58633;49.470;11.004;2022-08-19T05:24:52;25.98;;;18.83;;
6823;SDS011;58633;49.470;11.004;2022-08-19T05:27:18;27.80;;;18.65;;
6823;SDS011;58633;49.470;11.004;2022-08-19T05:29:43;29.77;;;19.15;;
6823;SDS011;58633;49.470;11.004;2022-08-19T05:32:09;29.75;;;19.35;;
6823;SDS011;58633;49.470;11.004;2022-08-19T05:34:35;31.60;;;19.80;;
6823;SDS011;58633;49.470;11.004;2022-08-19T05:37:02;28.88;;;20.00;;
6823;SDS011;58633;49.470;11.004;2022-08-19T05:39:30;31.38;;;20.15;;
6823;SDS011;58633;49.470;11.004;2022-08-19T05:41:58;27.75;;;19.92;;
6823;SDS011;58633;49.470;11.004;2022-08-19T05:44:27;28.20;;;19.58;;
6823;SDS011;58633;49.470;11.004;2022-08-19T05:46:56;27.15;;;19.27;;
6823;SDS011;58633;49.470;11.004;2022-08-19T05:49:22;26.17;;;18.50;;
6823;SDS011;58633;49.470;11.004;2022-08-19T05:51:50;28.67;;;18.73;;
6823;SDS011;58633;49.470;11.004;2022-08-19T05:54:16;24.42;;;17.95;;
6823;SDS011;58633;49.470;11.004;2022-08-19T05:56:42;27.77;;;19.08;;
6823;SDS011;58633;49.470;11.004;2022-08-19T05:59:09;28.45;;;19.38;;
6823;SDS011;58633;49.470;11.004;2022-08-19T06:01:39;27.60;;;19.55;;
6823;SDS011;58633;49.470;11.004;2022-08-19T06:04:06;28.13;;;18.83;;
6823;SDS011;58633;49.470;11.004;2022-08-19T06:06:33;27.80;;;19.08;;
6823;SDS011;58633;49.470;11.004;2022-08-19T06:09:03;26.70;;;18.80;;
6823;SDS011;58633;49.470;11.004;2022-08-19T06:11:34;29.73;;;19.42;;
6823;SDS011;58633;49.470;11.004;2022-08-19T06:14:06;27.10;;;19.35;;
6823;SDS011;58633;49.470;11.004;2022-08-19T06:16:35;27.67;;;19.38;;
6823;SDS011;58633;49.470;11.004;2022-08-19T06:19:03;27.13;;;19.40;;
6823;SDS011;58633;49.470;11.004;2022-08-19T06:21:33;27.20;;;18.73;;
6823;SDS011;58633;49.470;11.004;2022-08-19T06:24:02;28.20;;;18.92;;
6823;SDS011;58633;49.470;11.004;2022-08-19T06:26:28;27.30;;;19.10;;
6823;SDS011;58633;49.470;11.004;2022-08-19T06:28:54;27.38;;;19.65;;
6823;SDS011;58633;49.470;11.004;2022-08-19T06:31:22;26.70;;;18.63;;
6823;SDS011;58633;49.470;11.004;2022-08-19T06:33:50;29.45;;;19.48;;
6823;SDS011;58633;49.470;11.004;2022-08-19T06:36:21;28.52;;;18.52;;
6823;SDS011;58633;49.470;11.004;2022-08-19T06:38:58;29.52;;;18.90;;
6823;SDS011;58633;49.470;11.004;2022-08-19T06:41:25;25.10;;;18.00;;
6823;SDS011;58633;49.470;11.004;2022-08-19T06:43:51;26.65;;;18.42;;
6823;SDS011;58633;49.470;11.004;2022-08-19T06:46:17;24.42;;;18.05;;
6823;SDS011;58633;49.470;11.004;2022-08-19T06:48:44;26.08;;;17.75;;
6823;SDS011;58633;49.470;11.004;2022-08-19T06:51:11;24.55;;;17.50;;
6823;SDS011;58633;49.470;11.004;2022-08-19T06:53:41;22.50;;;16.25;;
6823;SDS011;58633;49.470;11.004;2022-08-19T06:56:12;22.88;;;16.40;;
6823;SDS011;58633;49.470;11.004;2022-08-19T06:58:39;20.25;;;14.82;;
6823;SDS011;58633;49.470;11.004;2022-08-19T07:01:05;19.23;;;14.27;;
6823;SDS011;58633;49.470;11.004;2022-08-19T07:03:33;22.40;;;15.30;;
6823;SDS011;58633;49.470;11.004;2022-08-19T07:06:07;20.77;;;15.25;;
6823;SDS011;58633;49.470;11.004;2022-08-19T07:08:35;20.77;;;15.60;;
6823;SDS011;58633;49.470;11.004;2022-08-19T07:11:02;20.50;;;15.35;;
6823;SDS011;58633;49.470;11.004;2022-08-19T07:13:31;20.73;;;14.10;;
6823;SDS011;58633;49.470;11.004;2022-08-19T07:16:02;17.77;;;13.50;;
6823;SDS011;58633;49.470;11.004;2022-08-19T07:18:32;17.30;;;12.50;;
6823;SDS011;58633;49.470;11.004;2022-08-19T07:23:56;14.30;;;11.80;;
6823;SDS011;58633;49.470;11.004;2022-08-19T07:26:29;15.30;;;11.85;;
6823;SDS011;58633;49.470;11.004;2022-08-19T07:28:57;14.00;;;11.95;;
6823;SDS011;58633;49.470;11.004;2022-08-19T07:31:25;15.50;;;12.02;;
6823;SDS011;58633;49.470;11.004;2022-08-19T07:33:52;16.23;;;12.45;;
6823;SDS011;58633;49.470;11.004;2022-08-19T07:36:21;16.55;;;13.27;;
6823;SDS011;58633;49.470;11.004;2022-08-19T07:38:49;16.73;;;12.73;;
6823;SDS011;58633;49.470;11.004;2022-08-19T07:41:18;19.25;;;13.70;;
6823;SDS011;58633;49.470;11.004;2022-08-19T07:43:46;18.17;;;13.00;;
6823;SDS011;58633;49.470;11.004;2022-08-19T07:46:12;15.60;;;12.52;;
6823;SDS011;58633;49.470;11.004;2022-08-19T07:48:39;15.52;;;12.32;;
6823;SDS011;58633;49.470;11.004;2022-08-19T07:51:08;17.65;;;12.38;;
6823;SDS011;58633;49.470;11.004;2022-08-19T07:53:36;15.43;;;12.20;;
6823;SDS011;58633;49.470;11.004;2022-08-19T07:56:02;17.77;;;13.32;;
6823;SDS011;58633;49.470;11.004;2022-08-19T07:58:29;17.08;;;12.95;;
6823;SDS011;58633;49.470;11.004;2022-08-19T08:00:58;15.80;;;12.93;;
6823;SDS011;58633;49.470;11.004;2022-08-19T08:03:25;16.00;;;11.95;;
6823;SDS011;58633;49.470;11.004;2022-08-19T08:06:11;14.85;;;12.32;;
6823;SDS011;58633;49.470;11.004;2022-08-19T08:08:56;18.10;;;12.93;;
6823;SDS011;58633;49.470;11.004;2022-08-19T08:11:38;18.98;;;14.15;;
6823;SDS011;58633;49.470;11.004;2022-08-19T08:14:06;22.55;;;14.48;;
6823;SDS011;58633;49.470;11.004;2022-08-19T08:16:34;21.85;;;15.40;;
6823;SDS011;58633;49.470;11.004;2022-08-19T08:19:03;20.45;;;15.00;;
6823;SDS011;58633;49.470;11.004;2022-08-19T08:21:33;23.50;;;15.63;;
6823;SDS011;58633;49.470;11.004;2022-08-19T08:23:59;20.88;;;16.15;;
6823;SDS011;58633;49.470;11.004;2022-08-19T08:26:25;25.52;;;16.15;;
6823;SDS011;58633;49.470;11.004;2022-08-19T08:28:52;23.23;;;15.48;;
6823;SDS011;58633;49.470;11.004;2022-08-19T08:31:19;21.90;;;16.25;;
6823;SDS011;58633;49.470;11.004;2022-08-19T08:33:45;24.92;;;17.42;;
6823;SDS011;58633;49.470;11.004;2022-08-19T08:36:12;20.55;;;15.32;;
6823;SDS011;58633;49.470;11.004;2022-08-19T08:38:39;21.35;;;15.85;;
6823;SDS011;58633;49.470;11.004;2022-08-19T08:41:11;28.63;;;17.85;;
6823;SDS011;58633;49.470;11.004;2022-08-19T08:43:58;22.38;;;16.52;;
6823;SDS011;58633;49.470;11.004;2022-08-19T08:46:26;23.58;;;16.85;;
6823;SDS011;58633;49.470;11.004;2022-08-19T08:51:46;23.27;;;16.65;;
6823;SDS011;58633;49.470;11.004;2022-08-19T08:54:19;25.00;;;17.58;;
6823;SDS011;58633;49.470;11.004;2022-08-19T08:56:50;26.55;;;17.58;;
6823;SDS011;58633;49.470;11.004;2022-08-19T08:59:23;20.63;;;16.20;;
6823;SDS011;58633;49.470;11.004;2022-08-19T09:01:58;23.10;;;16.33;;
6823;SDS011;58633;49.470;11.004;2022-08-19T09:04:24;21.23;;;15.98;;
6823;SDS011;58633;49.470;11.004;2022-08-19T09:09:33;20.38;;;15.25;;
6823;SDS011;58633;49.470;11.004;2022-08-19T09:15:00;21.17;;;14.90;;
6823;SDS011;58633;49.470;11.004;2022-08-19T09:17:30;18.52;;;13.98;;
6823;SDS011;58633;49.470;11.004;2022-08-19T09:20:06;19.48;;;14.35;;
6823;SDS011;58633;49.470;11.004;2022-08-19T09:22:34;21.38;;;14.35;;
6823;SDS011;58633;49.470;11.004;2022-08-19T09:25:02;17.77;;;14.10;;
6823;SDS011;58633;49.470;11.004;2022-08-19T09:27:29;18.65;;;13.68;;
6823;SDS011;58633;49.470;11.004;2022-08-19T09:29:57;19.20;;;14.85;;
6823;SDS011;58633;49.470;11.004;2022-08-19T09:32:23;18.50;;;14.30;;
6823;SDS011;58633;49.470;11.004;2022-08-19T09:34:50;20.08;;;14.93;;
6823;SDS011;58633;49.470;11.004;2022-08-19T09:37:19;19.45;;;14.95;;
6823;SDS011;58633;49.470;11.004;2022-08-19T09:39:45;22.42;;;15.15;;
6823;SDS011;58633;49.470;11.004;2022-08-19T09:42:11;20.65;;;14.85;;
6823;SDS011;58633;49.470;11.004;2022-08-19T09:44:39;20.02;;;15.18;;
6823;SDS011;58633;49.470;11.004;2022-08-19T09:47:07;20.80;;;15.38;;
6823;SDS011;58633;49.470;11.004;2022-08-19T09:49:34;20.83;;;15.80;;
6823;SDS011;58633;49.470;11.004;2022-08-19T09:52:01;23.92;;;16.92;;
6823;SDS011;58633;49.470;11.004;2022-08-19T09:54:27;23.60;;;16.05;;
6823;SDS011;58633;49.470;11.004;2022-08-19T09:56:54;21.63;;;15.50;;
6823;SDS011;58633;49.470;11.004;2022-08-19T09:59:20;22.38;;;16.17;;
6823;SDS011;58633;49.470;11.004;2022-08-19T10:01:46;22.00;;;14.65;;
6823;SDS011;58633;49.470;11.004;2022-08-19T10:04:12;22.65;;;15.30;;
6823;SDS011;58633;49.470;11.004;2022-08-19T10:06:38;22.05;;;15.10;;
6823;SDS011;58633;49.470;11.004;2022-08-19T10:09:08;21.08;;;15.90;;
6823;SDS011;58633;49.470;11.004;2022-08-19T10:11:38;24.52;;;15.10;;
6823;SDS011;58633;49.470;11.004;2022-08-19T10:14:05;19.40;;;14.68;;
6823;SDS011;58633;49.470;11.004;2022-08-19T10:16:31;22.30;;;15.13;;
6823;SDS011;58633;49.470;11.004;2022-08-19T10:18:58;18.10;;;14.40;;
6823;SDS011;58633;49.470;11.004;2022-08-19T10:21:25;22.02;;;15.00;;
6823;SDS011;58633;49.470;11.004;2022-08-19T10:23:54;19.55;;;13.90;;
6823;SDS011;58633;49.470;11.004;2022-08-19T10:26:23;21.17;;;14.68;;
6823;SDS011;58633;49.470;11.004;2022-08-19T10:28:50;19.98;;;14.25;;
6823;SDS011;58633;49.470;11.004;2022-08-19T10:31:18;19.50;;;14.40;;
6823;SDS011;58633;49.470;11.004;2022-08-19T10:33:54;21.00;;;14.20;;
6823;SDS011;58633;49.470;11.004;2022-08-19T10:36:25;18.58;;;13.98;;
6823;SDS011;58633;49.470;11.004;2022-08-19T10:38:53;19.52;;;13.90;;
6823;SDS011;58633;49.470;11.004;2022-08-19T10:41:24;18.13;;;13.68;;
6823;SDS011;58633;49.470;11.004;2022-08-19T10:43:52;17.63;;;12.98;;
6823;SDS011;58633;49.470;11.004;2022-08-19T10:46:20;17.17;;;13.32;;
6823;SDS011;58633;49.470;11.004;2022-08-19T10:48:48;18.52;;;13.50;;
6823;SDS011;58633;49.470;11.004;2022-08-19T10:51:14;20.73;;;13.23;;
6823;SDS011;58633;49.470;11.004;2022-08-19T10:53:59;18.73;;;12.85;;
6823;SDS011;58633;49.470;11.004;2022-08-19T10:56:26;17.95;;;12.50;;
6823;SDS011;58633;49.470;11.004;2022-08-19T10:59:11;16.65;;;13.43;;
6823;SDS011;58633;49.470;11.004;2022-08-19T11:01:40;17.65;;;13.48;;
6823;SDS011;58633;49.470;11.004;2022-08-19T11:04:07;17.67;;;13.32;;
6823;SDS011;58633;49.470;11.004;2022-08-19T11:06:35;15.45;;;12.70;;
6823;SDS011;58633;49.470;11.004;2022-08-19T11:09:03;15.82;;;13.27;;
6823;SDS011;58633;49.470;11.004;2022-08-19T11:11:31;19.77;;;13.57;;
6823;SDS011;58633;49.470;11.004;2022-08-19T11:13:58;15.95;;;13.43;;
6823;SDS011;58633;49.470;11.004;2022-08-19T11:16:25;16.50;;;13.15;;
6823;SDS011;58633;49.470;11.004;2022-08-19T11:18:53;16.88;;;13.45;;
6823;SDS011;58633;49.470;11.004;2022-08-19T11:23:46;15.25;;;12.95;;
6823;SDS011;58633;49.470;11.004;2022-08-19T11:26:13;15.77;;;12.57;;
6823;SDS011;58633;49.470;11.004;2022-08-19T11:28:40;16.30;;;13.10;;
6823;SDS011;58633;49.470;11.004;2022-08-19T11:31:13;17.35;;;12.65;;
6823;SDS011;58633;49.470;11.004;2022-08-19T11:33:42;15.25;;;12.48;;
6823;SDS011;58633;49.470;11.004;2022-08-19T11:36:09;16.25;;;13.35;;
6823;SDS011;58633;49.470;11.004;2022-08-19T11:38:36;14.82;;;11.48;;
6823;SDS011;58633;49.470;11.004;2022-08-19T11:41:04;15.20;;;12.77;;
6823;SDS011;58633;49.470;11.004;2022-08-19T11:43:32;13.85;;;12.35;;
6823;SDS011;58633;49.470;11.004;2022-08-19T11:46:03;17.10;;;12.48;;
6823;SDS011;58633;49.470;11.004;2022-08-19T11:48:33;15.68;;;12.00;;
6823;SDS011;58633;49.470;11.004;2022-08-19T11:51:03;13.77;;;12.00;;
6823;SDS011;58633;49.470;11.004;2022-08-19T11:53:30;14.95;;;11.25;;
6823;SDS011;58633;49.470;11.004;2022-08-19T11:55:56;16.60;;;12.50;;
6823;SDS011;58633;49.470;11.004;2022-08-19T11:58:22;14.20;;;11.73;;
6823;SDS011;58633;49.470;11.004;2022-08-19T12:00:51;13.32;;;11.68;;
6823;SDS011;58633;49.470;11.004;2022-08-19T12:03:17;15.50;;;12.65;;
6823;SDS011;58633;49.470;11.004;2022-08-19T12:05:44;14.88;;;12.02;;
6823;SDS011;58633;49.470;11.004;2022-08-19T12:08:11;14.73;;;12.55;;
6823;SDS011;58633;49.470;11.004;2022-08-19T12:10:38;14.98;;;12.02;;
6823;SDS011;58633;49.470;11.004;2022-08-19T12:13:05;15.27;;;11.85;;
6823;SDS011;58633;49.470;11.004;2022-08-19T12:15:35;13.40;;;12.00;;
6823;SDS011;58633;49.470;11.004;2022-08-19T12:18:01;22.33;;;16.27;;
6823;SDS011;58633;49.470;11.004;2022-08-19T12:20:28;20.38;;;15.77;;
6823;SDS011;58633;49.470;11.004;2022-08-19T12:22:54;18.77;;;14.63;;
6823;SDS011;58633;49.470;11.004;2022-08-19T12:25:20;16.70;;;12.93;;
6823;SDS011;58633;49.470;11.004;2022-08-19T12:27:47;17.52;;;14.10;;
6823;SDS011;58633;49.470;11.004;2022-08-19T12:30:15;15.70;;;13.07;;
6823;SDS011;58633;49.470;11.004;2022-08-19T12:32:41;17.17;;;13.65;;
6823;SDS011;58633;49.470;11.004;2022-08-19T12:35:07;16.00;;;12.65;;
6823;SDS011;58633;49.470;11.004;2022-08-19T12:37:35;18.02;;;14.82;;
6823;SDS011;58633;49.470;11.004;2022-08-19T12:40:01;19.13;;;14.73;;
6823;SDS011;58633;49.470;11.004;2022-08-19T12:42:28;17.30;;;14.27;;
6823;SDS011;58633;49.470;11.004;2022-08-19T12:44:55;16.98;;;13.52;;
6823;SDS011;58633;49.470;11.004;2022-08-19T12:47:21;16.70;;;13.75;;
6823;SDS011;58633;49.470;11.004;2022-08-19T12:49:48;17.30;;;14.02;;
6823;SDS011;58633;49.470;11.004;2022-08-19T12:52:14;20.60;;;14.93;;
6823;SDS011;58633;49.470;11.004;2022-08-19T12:54:41;16.98;;;12.80;;
6823;SDS011;58633;49.470;11.004;2022-08-19T12:57:08;17.10;;;14.32;;
6823;SDS011;58633;49.470;11.004;2022-08-19T12:59:35;17.48;;;14.48;;
6823;SDS011;58633;49.470;11.004;2022-08-19T13:02:03;18.52;;;14.25;;
6823;SDS011;58633;49.470;11.004;2022-08-19T13:04:30;19.20;;;14.55;;
6823;SDS011;58633;49.470;11.004;2022-08-19T13:06:57;19.35;;;15.32;;
6823;SDS011;58633;49.470;11.004;2022-08-19T13:09:23;19.60;;;15.60;;
6823;SDS011;58633;49.470;11.004;2022-08-19T13:11:49;21.38;;;16.33;;
6823;SDS011;58633;49.470;11.004;2022-08-19T13:14:15;21.50;;;16.52;;
6823;SDS011;58633;49.470;11.004;2022-08-19T13:16:41;21.27;;;17.23;;
6823;SDS011;58633;49.470;11.004;2022-08-19T13:19:08;28.48;;;17.15;;
6823;SDS011;58633;49.470;11.004;2022-08-19T13:21:35;20.00;;;16.83;;
6823;SDS011;58633;49.470;11.004;2022-08-19T13:24:02;22.35;;;16.90;;
6823;SDS011;58633;49.470;11.004;2022-08-19T13:26:28;22.00;;;16.73;;
6823;SDS011;58633;49.470;11.004;2022-08-19T13:28:54;22.30;;;17.10;;
6823;SDS011;58633;49.470;11.004;2022-08-19T13:31:50;22.70;;;17.60;;
6823;SDS011;58633;49.470;11.004;2022-08-19T13:34:35;21.17;;;16.33;;
6823;SDS011;58633;49.470;11.004;2022-08-19T13:37:02;22.45;;;16.65;;
6823;SDS011;58633;49.470;11.004;2022-08-19T13:39:32;25.27;;;17.70;;
6823;SDS011;58633;49.470;11.004;2022-08-19T13:41:58;21.88;;;17.25;;
6823;SDS011;58633;49.470;11.004;2022-08-19T13:44:25;23.77;;;19.15;;
6823;SDS011;58633;49.470;11.004;2022-08-19T13:46:54;22.90;;;18.33;;
6823;SDS011;58633;49.470;11.004;2022-08-19T13:49:27;24.05;;;18.10;;
6823;SDS011;58633;49.470;11.004;2022-08-19T13:51:54;23.52;;;18.05;;
6823;SDS011;58633;49.470;11.004;2022-08-19T13:54:20;22.45;;;18.38;;
6823;SDS011;58633;49.470;11.004;2022-08-19T13:56:46;20.85;;;16.83;;
6823;SDS011;58633;49.470;11.004;2022-08-19T13:59:12;26.38;;;17.98;;
6823;SDS011;58633;49.470;11.004;2022-08-19T14:01:38;23.50;;;17.95;;
6823;SDS011;58633;49.470;11.004;2022-08-19T14:04:05;24.63;;;18.65;;
6823;SDS011;58633;49.470;11.004;2022-08-19T14:06:31;25.30;;;18.65;;
6823;SDS011;58633;49.470;11.004;2022-08-19T14:08:57;23.42;;;18.38;;
6823;SDS011;58633;49.470;11.004;2022-08-19T14:11:23;25.23;;;17.35;;
6823;SDS011;58633;49.470;11.004;2022-08-19T14:13:49;26.33;;;19.90;;
6823;SDS011;58633;49.470;11.004;2022-08-19T14:16:15;26.27;;;19.63;;
6823;SDS011;58633;49.470;11.004;2022-08-19T14:18:42;28.33;;;20.30;;
6823;SDS011;58633;49.470;11.004;2022-08-19T14:21:13;26.48;;;19.27;;
6823;SDS011;58633;49.470;11.004;2022-08-19T14:23:42;34.72;;;23.92;;
6823;SDS011;58633;49.470;11.004;2022-08-19T14:26:10;33.75;;;22.08;;
6823;SDS011;58633;49.470;11.004;2022-08-19T14:28:39;30.63;;;22.88;;
6823;SDS011;58633;49.470;11.004;2022-08-19T14:31:08;38.30;;;23.88;;
6823;SDS011;58633;49.470;11.004;2022-08-19T14:33:38;33.63;;;24.00;;
6823;SDS011;58633;49.470;11.004;2022-08-19T14:36:05;31.33;;;20.73;;
6823;SDS011;58633;49.470;11.004;2022-08-19T14:38:31;28.63;;;20.20;;
6823;SDS011;58633;49.470;11.004;2022-08-19T14:41:08;28.75;;;20.70;;
6823;SDS011;58633;49.470;11.004;2022-08-19T14:43:47;27.67;;;18.77;;
6823;SDS011;58633;49.470;11.004;2022-08-19T14:46:15;25.88;;;17.63;;